Time;durP1;ratioP1;P1;durP2;ratioP2;P2;SDS_P1;SDS_P2;PMS_P1;PMS_P2;Temp;Humidity;BMP_temperature;BMP_pressure;BME280_temperature;BME280_humidity;BME280_pressure;Samples;Min_cycle;Max_cycle;Signal;HPM_P1;HPM_P2
2022/04/20 00:00:08;;;;;;;7.25;2.17;;;;;;;7.24;49.94;99614.31;12185115;19;20361;-82
2022/04/20 00:04:14;;;;;;;3.72;1.63;;;;;;;7.15;50.24;99615.69;12199983;19;20021;-82
2022/04/20 00:08:16;;;;;;;3.55;1.80;;;;;;;7.05;50.65;99612.69;12178658;19;20455;-83
2022/04/20 00:12:19;;;;;;;3.17;2.20;;;;;;;6.98;51.10;99606.44;12221964;19;20017;-82
2022/04/20 00:16:20;;;;;;;5.18;2.25;;;;;;;6.92;51.10;99601.91;12208464;19;19998;-82
2022/04/20 00:20:22;;;;;;;8.20;2.65;;;;;;;6.87;51.34;99602.59;12241592;19;20021;-82
2022/04/20 00:24:24;;;;;;;6.95;2.00;;;;;;;6.81;51.33;99615.31;12209701;19;20026;-82
2022/04/20 00:28:25;;;;;;;3.17;1.63;;;;;;;6.74;52.19;99609.06;12186528;19;20022;-82
2022/04/20 00:32:27;;;;;;;6.32;1.98;;;;;;;6.67;52.51;99613.81;12215454;19;20023;-82
2022/04/20 00:36:29;;;;;;;4.85;2.00;;;;;;;6.60;52.50;99607.53;12203002;19;20426;-81
2022/04/20 00:40:30;;;;;;;3.78;2.13;;;;;;;6.50;53.19;99610.81;12190296;19;20011;-82
2022/04/20 00:44:32;;;;;;;5.93;2.10;;;;;;;6.43;53.82;99611.97;12189232;19;20066;-83
2022/04/20 00:48:38;;;;;;;4.50;1.92;;;;;;;6.36;53.54;99612.88;12216331;19;20010;-83
2022/04/20 00:52:40;;;;;;;6.72;2.50;;;;;;;6.31;53.91;99615.47;12196357;19;20558;-82
2022/04/20 00:57:02;;;;;;;6.03;2.33;;;;;;;6.31;54.03;99618.22;12213398;19;20021;-82
2022/04/20 01:01:07;;;;;;;5.03;2.25;;;;;;;6.28;54.13;99615.94;12216704;19;20668;-82
2022/04/20 01:05:09;;;;;;;3.47;1.92;;;;;;;6.24;54.44;99620.16;12190746;19;20098;-81
2022/04/20 01:09:19;;;;;;;5.80;2.15;;;;;;;6.23;54.50;99617.66;12213219;19;20015;-83
2022/04/20 01:13:31;;;;;;;4.10;2.30;;;;;;;6.21;55.29;99614.31;12193674;19;20006;-82
2022/04/20 01:17:51;;;;;;;4.80;2.10;;;;;;;6.19;55.14;99614.56;12209747;19;20404;-82
2022/04/20 01:22:13;;;;;;;4.05;2.15;;;;;;;6.15;55.70;99611.41;12212062;19;20010;-81
2022/04/20 01:26:53;;;;;;;4.18;2.00;;;;;;;6.12;55.79;99611.03;12100487;19;2004633;-82
2022/04/20 01:31:26;;;;;;;3.40;2.15;;;;;;;6.07;56.51;99599.94;12190063;19;20011;-82
2022/04/20 01:35:50;;;;;;;3.42;2.20;;;;;;;6.02;56.82;99603.34;12208169;19;20006;-82
2022/04/20 01:39:52;;;;;;;4.28;2.10;;;;;;;5.99;57.06;99605.69;12213452;19;20011;-83
2022/04/20 01:43:54;;;;;;;4.55;2.30;;;;;;;5.93;57.19;99602.78;12192054;19;20022;-83
2022/04/20 01:48:17;;;;;;;3.53;2.20;;;;;;;5.89;57.89;99606.19;12210639;19;20450;-82
2022/04/20 01:52:49;;;;;;;2.95;1.70;;;;;;;5.86;58.15;99609.34;12190081;19;20463;-82
2022/04/20 01:57:10;;;;;;;4.78;2.10;;;;;;;5.82;58.31;99608.94;12208095;19;20126;-81
2022/04/20 02:05:58;;;;;;;4.75;2.08;;;;;;;5.77;58.93;99610.69;12200726;19;20767;-82
2022/04/20 02:10:26;;;;;;;4.38;2.35;;;;;;;5.71;58.56;99605.06;12184790;19;20012;-82
2022/04/20 02:14:28;;;;;;;5.93;2.22;;;;;;;5.67;58.86;99613.94;12206259;19;20011;-81
2022/04/20 02:18:40;;;;;;;4.30;1.73;;;;;;;5.61;59.42;99607.44;12207406;19;20017;-81
2022/04/20 02:22:58;;;;;;;4.75;2.00;;;;;;;5.59;59.42;99611.47;12191994;19;20093;-82
2022/04/20 02:27:00;;;;;;;4.97;2.05;;;;;;;5.56;59.44;99618.22;12213353;19;20070;-81
2022/04/20 02:31:02;;;;;;;4.30;2.20;;;;;;;5.56;59.86;99625.56;12203609;19;20518;-81
2022/04/20 02:35:05;;;;;;;5.78;1.85;;;;;;;5.50;59.91;99624.56;12188977;19;20006;-81
2022/04/20 02:39:07;;;;;;;5.80;2.53;;;;;;;5.47;59.84;99623.13;12207636;19;20014;-81
2022/04/20 02:43:10;;;;;;;4.10;2.10;;;;;;;5.43;60.56;99624.63;12206665;19;20625;-80
2022/04/20 02:47:12;;;;;;;10.07;2.45;;;;;;;5.42;60.42;99617.47;12187978;19;20043;-81
2022/04/20 02:51:14;;;;;;;;;;;;;;;5.41;61.13;99618.56;12213852;19;20010;-81
2022/04/20 02:55:18;;;;;;;3.33;1.92;;;;;;;5.38;60.19;99627.16;12188824;19;19915;-81
2022/04/20 02:59:19;;;;;;;3.95;2.03;;;;;;;5.34;61.10;99625.09;12210935;19;20007;-81
2022/04/20 03:03:23;;;;;;;4.28;1.90;;;;;;;5.30;60.94;99627.44;12209142;19;20027;-81
2022/04/20 03:07:25;;;;;;;3.97;1.90;;;;;;;5.27;61.06;99619.69;12178749;19;20629;-81
2022/04/20 03:11:30;;;;;;;4.88;2.05;;;;;;;5.27;61.27;99629.78;12205427;19;20006;-81
2022/04/20 03:15:32;;;;;;;3.40;2.07;;;;;;;5.24;61.50;99631.91;12208368;19;20007;-82
2022/04/20 03:19:36;;;;;;;4.80;2.22;;;;;;;5.20;61.60;99632.53;12186544;19;20008;-81
2022/04/20 03:23:37;;;;;;;4.88;2.55;;;;;;;5.19;61.65;99633.59;12197473;19;20034;-81
2022/04/20 03:27:43;;;;;;;3.38;2.30;;;;;;;5.16;62.13;99631.31;12196137;19;20022;-81
2022/04/20 03:31:44;;;;;;;4.82;2.35;;;;;;;5.14;62.56;99638.88;12178126;19;20386;-81
2022/04/20 03:35:47;;;;;;;4.13;2.27;;;;;;;5.10;62.66;99634.91;12192636;19;20481;-82
2022/04/20 03:39:49;;;;;;;4.43;2.27;;;;;;;5.06;63.04;99647.31;12205293;19;20007;-82
2022/04/20 03:43:50;;;;;;;4.57;2.33;;;;;;;5.00;63.02;99643.59;12177451;19;20014;-81
2022/04/20 03:47:52;;;;;;;3.67;2.22;;;;;;;4.96;62.97;99645.06;12196370;19;20516;-82
2022/04/20 03:51:54;;;;;;;6.35;2.88;;;;;;;4.90;63.92;99651.41;12206255;19;20023;-81
2022/04/20 03:56:02;;;;;;;5.82;3.25;;;;;;;4.85;63.75;99645.75;12169455;19;20014;-81
2022/04/20 04:00:06;;;;;;;4.63;2.17;;;;;;;4.80;64.29;99638.22;12199077;19;20485;-81
2022/04/20 04:04:17;;;;;;;5.03;2.50;;;;;;;4.73;65.12;99638.25;12174750;19;20003;-80
2022/04/20 04:08:19;;;;;;;4.03;2.13;;;;;;;4.71;65.27;99639.50;12192356;19;20006;-81
2022/04/20 04:12:26;;;;;;;4.82;2.50;;;;;;;4.66;65.12;99636.59;12203300;19;20075;-80
2022/04/20 04:16:36;;;;;;;;;;;;;;;4.61;66.31;99641.84;12167418;19;20023;-81
2022/04/20 04:20:39;;;;;;;4.05;2.30;;;;;;;4.57;64.83;99642.28;12206182;19;19919;-81
2022/04/20 04:24:43;;;;;;;5.97;2.78;;;;;;;4.56;65.14;99635.16;12216330;19;20007;-81
2022/04/20 04:28:47;;;;;;;3.85;2.70;;;;;;;4.57;65.07;99641.44;12192815;19;20115;-80
2022/04/20 04:32:51;;;;;;;5.93;2.45;;;;;;;4.58;65.39;99637.69;12203180;19;20745;-81
2022/04/20 04:36:54;;;;;;;5.00;2.28;;;;;;;4.62;65.21;99635.34;12214456;19;20007;-81
2022/04/20 04:40:56;;;;;;;4.03;2.30;;;;;;;4.65;65.15;99649.41;12185625;19;20007;-80
2022/04/20 04:49:31;;;;;;;4.28;2.30;;;;;;;4.69;65.60;99656.09;12178688;19;20026;-81
2022/04/20 04:53:34;;;;;;;5.75;2.20;;;;;;;4.71;65.56;99659.44;12214674;19;20015;-81
2022/04/20 04:57:46;;;;;;;4.05;2.47;;;;;;;4.72;65.54;99654.81;12202870;19;20089;-82
2022/04/20 05:01:47;;;;;;;4.15;2.47;;;;;;;4.73;65.95;99661.94;12184993;19;20032;-81
2022/04/20 05:05:53;;;;;;;6.25;2.53;;;;;;;4.77;65.61;99657.75;12205389;19;20046;-81
2022/04/20 05:10:13;;;;;;;8.23;2.42;;;;;;;4.81;65.40;99659.00;12207190;19;20017;-81
2022/04/20 05:14:16;;;;;;;4.60;2.42;;;;;;;4.81;65.62;99667.19;12194203;19;20090;-81
2022/04/20 05:18:21;;;;;;;6.65;2.85;;;;;;;4.84;65.97;99669.47;12208220;19;20007;-81
2022/04/20 05:22:25;;;;;;;6.05;2.42;;;;;;;4.85;66.14;99662.97;12190893;19;20011;-82
2022/04/20 05:26:29;;;;;;;4.00;2.45;;;;;;;4.87;66.04;99669.03;12201944;19;20413;-82
2022/04/20 05:30:31;;;;;;;4.53;2.30;;;;;;;4.90;66.19;99674.06;12210162;19;20011;-81
2022/04/20 05:34:34;;;;;;;5.20;2.63;;;;;;;4.96;66.22;99672.38;12185263;19;20006;-81
2022/04/20 05:42:59;;;;;;;6.18;3.10;;;;;;;5.05;65.68;99665.59;12198003;19;20006;-82
2022/04/20 05:47:02;;;;;;;2.90;1.90;;;;;;;5.16;65.66;99675.00;12187512;19;20011;-81
2022/04/20 05:51:04;;;;;;;4.15;2.40;;;;;;;5.25;64.69;99671.81;12203764;19;20255;-79
2022/04/20 05:55:07;;;;;;;5.47;2.53;;;;;;;5.32;65.35;99671.75;12203916;19;20010;-81
2022/04/20 05:59:11;;;;;;;6.10;2.95;;;;;;;5.41;65.01;99681.41;12180366;19;20043;-80
2022/04/20 06:03:16;;;;;;;4.43;2.45;;;;;;;5.54;64.26;99679.63;12204660;19;20014;-81
2022/04/20 06:07:22;;;;;;;4.70;2.30;;;;;;;5.68;63.75;99667.53;12190501;19;20010;-82
2022/04/20 06:11:40;;;;;;;4.97;2.25;;;;;;;5.84;63.48;99668.91;12209625;19;20018;-83
2022/04/20 06:15:46;;;;;;;6.00;2.50;;;;;;;5.96;63.44;99669.06;12205211;19;20038;-82
2022/04/20 06:19:48;;;;;;;5.82;2.45;;;;;;;6.09;63.03;99666.19;12165207;19;20035;-84
2022/04/20 06:24:16;;;;;;;13.55;2.65;;;;;;;6.23;64.17;99677.88;12211798;19;20122;-83
2022/04/20 06:28:25;;;;;;;5.80;2.38;;;;;;;6.36;63.24;99670.34;12177803;19;20444;-84
2022/04/20 06:32:52;;;;;;;2.92;2.00;;;;;;;6.53;62.70;99667.84;12205550;19;20015;-83
2022/04/20 06:37:20;;;;;;;6.45;2.55;;;;;;;6.68;61.83;99670.22;12178057;19;20081;-84
2022/04/20 06:41:52;;;;;;;4.97;2.88;;;;;;;6.92;60.93;99670.38;12213639;19;20013;-84
2022/04/20 06:46:13;;;;;;;4.65;2.53;;;;;;;7.13;60.06;99669.06;12208735;19;20024;-83
2022/04/20 06:50:33;;;;;;;4.05;2.72;;;;;;;7.36;58.78;99677.38;12199231;19;20046;-82
2022/04/20 06:59:00;;;;;;;5.25;2.72;;;;;;;7.95;57.22;99674.81;12185637;19;20010;-83
2022/04/20 07:03:20;;;;;;;4.13;2.97;;;;;;;8.21;56.39;99679.03;12210554;19;20013;-83
2022/04/20 07:07:44;;;;;;;5.97;2.67;;;;;;;8.38;54.87;99688.25;12179615;19;20021;-81
2022/04/20 07:12:15;;;;;;;6.47;3.08;;;;;;;8.60;54.65;99676.69;12206891;19;20027;-86
2022/04/20 07:16:23;;;;;;;6.85;2.70;;;;;;;8.77;52.74;99685.81;12177167;19;20010;-83
2022/04/20 07:20:41;;;;;;;4.15;2.70;;;;;;;9.00;52.99;99684.13;12206554;19;20011;-83
2022/04/20 07:25:14;;;;;;;4.80;3.28;;;;;;;9.32;52.73;99695.50;12208614;19;20017;-82
2022/04/20 07:29:30;;;;;;;5.30;3.13;;;;;;;9.39;50.58;99690.69;12176687;19;20011;-81
2022/04/20 07:33:48;;;;;;;6.72;2.92;;;;;;;9.79;51.32;99682.38;12200519;19;20109;-82
2022/04/20 07:38:18;;;;;;;5.43;3.03;;;;;;;9.86;50.38;99684.97;12185512;19;20533;-84
2022/04/20 07:42:46;;;;;;;7.30;3.20;;;;;;;9.97;50.47;99678.56;12209022;19;20025;-82
2022/04/20 07:47:00;;;;;;;21.42;3.13;;;;;;;10.25;49.69;99693.34;12182719;19;20007;-83
2022/04/20 07:51:13;;;;;;;5.18;2.80;;;;;;;10.61;49.66;99691.16;12203713;19;20007;-83
2022/04/20 07:55:53;;;;;;;3.90;2.40;;;;;;;10.65;47.11;99690.41;12193121;19;20010;-81
2022/04/20 08:00:18;;;;;;;4.20;2.35;;;;;;;10.79;46.33;99695.53;12225122;19;20023;-84
2022/04/20 08:04:40;;;;;;;5.10;2.65;;;;;;;10.89;45.74;99692.94;12202562;19;20487;-84
2022/04/20 08:08:52;;;;;;;6.07;2.45;;;;;;;11.11;44.75;99695.72;12220915;19;20117;-82
2022/04/20 08:12:56;;;;;;;3.10;1.98;;;;;;;11.33;44.71;99688.28;12220436;19;20030;-84
2022/04/20 08:17:01;;;;;;;3.22;2.00;;;;;;;11.51;43.80;99689.00;12198915;19;20013;-81
2022/04/20 08:21:03;;;;;;;6.83;2.40;;;;;;;11.69;43.28;99693.34;12218646;19;20003;-80
2022/04/20 08:25:06;;;;;;;4.03;2.58;;;;;;;11.78;41.32;99687.09;12210244;19;20007;-83
2022/04/20 08:29:10;;;;;;;7.80;3.00;;;;;;;12.04;41.45;99687.34;12186168;19;20021;-81
2022/04/20 08:33:12;;;;;;;4.18;2.70;;;;;;;12.16;41.09;99687.19;12215488;19;20006;-82
2022/04/20 08:37:14;;;;;;;4.27;2.30;;;;;;;12.41;41.04;99676.34;12214160;19;20018;-82
2022/04/20 08:41:16;;;;;;;5.53;2.30;;;;;;;12.60;40.14;99673.16;12194885;19;20086;-84
2022/04/20 08:45:25;;;;;;;5.97;3.15;;;;;;;12.89;39.12;99671.66;12219741;19;20014;-83
2022/04/20 08:49:30;;;;;;;5.70;2.70;;;;;;;13.07;38.31;99670.38;12188374;19;20046;-82
2022/04/20 08:53:33;;;;;;;5.50;2.78;;;;;;;13.14;38.51;99662.66;12220086;19;20502;-82
2022/04/20 08:57:37;;;;;;;5.18;3.15;;;;;;;13.19;37.76;99661.84;12213046;19;20484;-84
2022/04/20 09:01:39;;;;;;;5.25;2.80;;;;;;;13.28;38.34;99657.47;12192442;19;20027;-83
2022/04/20 09:05:41;;;;;;;6.28;3.08;;;;;;;13.52;37.15;99666.13;12218042;19;20010;-83
2022/04/20 09:09:43;;;;;;;4.50;2.65;;;;;;;13.75;36.30;99662.03;12213692;19;20028;-84
2022/04/20 09:13:47;;;;;;;4.95;3.08;;;;;;;13.87;36.20;99659.00;12199503;19;20031;-84
2022/04/20 09:17:49;;;;;;;6.20;2.90;;;;;;;13.79;35.49;99660.38;12214337;19;20014;-82
2022/04/20 09:21:52;;;;;;;4.80;2.55;;;;;;;13.81;36.06;99660.94;12219354;19;20026;-83
2022/04/20 09:25:54;;;;;;;5.57;2.85;;;;;;;13.75;35.68;99655.66;12193976;19;20015;-84
2022/04/20 09:29:59;;;;;;;4.93;2.38;;;;;;;14.01;35.71;99649.06;12214497;19;20017;-84
2022/04/20 09:34:01;;;;;;;5.38;2.75;;;;;;;14.09;35.62;99642.94;12228936;19;20003;-82
2022/04/20 09:38:05;;;;;;;5.32;2.85;;;;;;;14.27;34.34;99640.72;12189607;19;20018;-84
2022/04/20 09:42:19;;;;;;;5.05;2.63;;;;;;;14.31;34.08;99637.13;12205560;19;20027;-83
2022/04/20 09:50:44;;;;;;;6.65;3.15;;;;;;;14.67;34.14;99611.31;12208846;19;20019;-84
2022/04/20 09:54:55;;;;;;;4.22;2.28;;;;;;;14.65;33.42;99608.78;12210470;19;20022;-83
2022/04/20 09:59:02;;;;;;;5.05;2.80;;;;;;;14.56;32.88;99602.16;12184278;19;20022;-82
2022/04/20 10:03:04;;;;;;;7.13;2.45;;;;;;;14.61;32.79;99595.78;12204791;19;20003;-81
2022/04/20 10:07:06;;;;;;;4.40;2.70;;;;;;;14.79;31.82;99611.81;12206564;19;20011;-82
2022/04/20 10:11:13;;;;;;;4.70;2.70;;;;;;;15.13;31.88;99600.00;12184114;19;20011;-84
2022/04/20 10:19:42;;;;;;;4.32;2.95;;;;;;;15.40;32.28;99614.28;12196346;19;20024;-84
2022/04/20 10:23:52;;;;;;;7.47;2.80;;;;;;;15.70;31.61;99601.34;12231437;19;20018;-84
2022/04/20 10:28:17;;;;;;;4.00;2.65;;;;;;;15.72;31.01;99590.78;12224796;19;20011;-85
2022/04/20 10:32:46;;;;;;;10.95;2.70;;;;;;;15.70;30.74;99596.66;12200215;19;20003;-85
2022/04/20 10:37:00;;;;;;;6.35;2.88;;;;;;;15.79;30.06;99594.06;12210117;19;20010;-83
2022/04/20 10:41:12;;;;;;;7.15;3.03;;;;;;;15.87;30.67;99576.78;12186251;19;20468;-82
2022/04/20 10:45:16;;;;;;;3.97;2.40;;;;;;;16.30;30.79;99579.75;12209595;19;20015;-81
2022/04/20 10:49:21;;;;;;;6.40;2.45;;;;;;;16.17;27.99;99563.72;12180590;19;20019;-79
2022/04/20 10:53:27;;;;;;;5.57;2.72;;;;;;;16.11;29.17;99559.34;12226191;19;20022;-82
2022/04/20 10:57:35;;;;;;;5.07;2.35;;;;;;;16.38;29.50;99551.25;12213682;19;20030;-82
2022/04/20 11:01:59;;;;;;;6.40;2.30;;;;;;;16.48;29.11;99553.13;12190341;19;20452;-83
2022/04/20 11:06:01;;;;;;;3.63;2.53;;;;;;;16.28;29.34;99540.28;12205988;19;20140;-82
2022/04/20 11:10:07;;;;;;;9.52;3.10;;;;;;;16.37;29.64;99535.72;12215588;19;20011;-83
2022/04/20 11:19:12;;;;;;;4.85;2.28;;;;;;;16.57;28.67;99523.53;12208563;19;20011;-82
2022/04/20 11:23:16;;;;;;;6.20;2.95;;;;;;;16.96;27.80;99522.50;12192225;19;20014;-79
2022/04/20 11:27:18;;;;;;;3.92;2.45;;;;;;;17.07;27.55;99520.41;12202522;19;20017;-81
2022/04/20 11:31:22;;;;;;;3.80;2.40;;;;;;;17.13;27.50;99510.03;12190154;19;20006;-79
2022/04/20 11:35:24;;;;;;;5.82;2.50;;;;;;;17.46;26.89;99499.75;12200164;19;20010;-81
2022/04/20 11:39:28;;;;;;;5.23;3.20;;;;;;;17.53;27.76;99516.94;12205989;19;20130;-82
2022/04/20 11:43:31;;;;;;;4.55;2.50;;;;;;;17.95;26.76;99506.78;12182622;19;20010;-80
2022/04/20 11:47:46;;;;;;;5.35;2.75;;;;;;;18.70;25.73;99480.47;12205378;19;20062;-78
2022/04/20 11:52:09;;;;;;;5.00;2.92;;;;;;;19.28;24.85;99495.69;12206443;19;20011;-81
2022/04/20 11:56:11;;;;;;;5.32;2.55;;;;;;;19.51;24.67;99504.91;12172667;19;20017;-82
2022/04/20 12:00:13;;;;;;;5.13;2.53;;;;;;;19.90;23.44;99497.81;12203659;19;20753;-84
2022/04/20 12:04:20;;;;;;;4.10;2.60;;;;;;;19.97;23.95;99501.00;12194901;19;20010;-83
2022/04/20 12:08:30;;;;;;;5.78;2.40;;;;;;;20.33;23.48;99491.63;12201832;19;20103;-82
2022/04/20 12:12:33;;;;;;;6.00;2.53;;;;;;;20.80;22.70;99481.63;12213604;19;20019;-82
2022/04/20 12:16:35;;;;;;;4.70;2.80;;;;;;;21.17;22.92;99482.16;12183891;19;20016;-82
2022/04/20 12:20:45;;;;;;;4.32;2.47;;;;;;;21.63;22.59;99469.50;12209947;19;20052;-82
2022/04/20 12:24:48;;;;;;;3.47;2.10;;;;;;;22.11;21.46;99465.56;12205560;19;20082;-79
2022/04/20 12:29:00;;;;;;;4.53;2.85;;;;;;;22.09;21.19;99462.28;12181265;19;20006;-80
2022/04/20 12:33:04;;;;;;;5.22;2.83;;;;;;;22.21;20.36;99458.78;12198065;19;20011;-82
2022/04/20 12:37:15;;;;;;;4.38;2.38;;;;;;;23.08;20.80;99458.31;12200578;19;20554;-80
2022/04/20 12:41:46;;;;;;;4.97;2.55;;;;;;;23.18;18.78;99446.69;12185332;19;20019;-83
2022/04/20 12:46:13;;;;;;;5.97;2.45;;;;;;;23.26;19.77;99443.00;12207531;19;20038;-83
2022/04/20 12:50:16;;;;;;;3.70;2.42;;;;;;;23.82;19.30;99428.56;12186746;19;20010;-81
2022/04/20 12:54:23;;;;;;;5.05;2.55;;;;;;;24.04;18.09;99424.53;12209756;19;20111;-80
2022/04/20 13:03:02;;;;;;;3.40;2.35;;;;;;;24.97;18.05;99400.19;12211976;19;20027;-82
2022/04/20 13:07:04;;;;;;;3.58;2.63;;;;;;;24.89;18.01;99405.97;12204802;19;20054;-83
2022/04/20 13:11:05;;;;;;;4.15;2.60;;;;;;;25.40;17.92;99404.34;12193159;19;20014;-83
2022/04/20 13:15:31;;;;;;;5.65;2.70;;;;;;;25.82;17.26;99403.91;12200609;19;20017;-83
2022/04/20 13:19:33;;;;;;;;;;;;;;;24.94;16.44;99392.47;12188724;19;20059;-82
2022/04/20 13:23:37;;;;;;;3.85;2.28;;;;;;;25.72;17.04;99381.00;12217951;19;19914;-82
2022/04/20 13:27:58;;;;;;;3.38;2.25;;;;;;;26.41;17.21;99379.56;12204427;19;20010;-82
2022/04/20 13:32:00;;;;;;;8.32;2.65;;;;;;;26.49;15.89;99380.56;12186186;19;20015;-84
2022/04/20 13:36:01;;;;;;;;;;;;;;;26.37;16.31;99382.31;12205841;19;20310;-83
2022/04/20 13:40:04;;;;;;;5.85;2.53;;;;;;;26.85;16.61;99387.88;12216355;19;19915;-82
2022/04/20 13:44:06;;;;;;;5.57;2.85;;;;;;;27.14;15.73;99372.38;12193757;19;20010;-83
2022/04/20 13:48:08;;;;;;;;;;;;;;;27.49;16.02;99374.31;12195308;19;20392;-81
2022/04/20 13:52:10;;;;;;;5.43;2.40;;;;;;;27.50;15.63;99379.59;12215659;19;19914;-82
2022/04/20 13:56:11;;;;;;;;;;;;;;;25.96;15.66;99363.13;12187461;19;20055;-82
2022/04/20 14:00:14;;;;;;;3.13;2.33;;;;;;;26.02;16.53;99370.13;12238845;19;19919;-81
2022/04/20 14:04:17;;;;;;;3.92;2.30;;;;;;;24.97;16.47;99366.38;12236336;19;20014;-81
2022/04/20 14:08:25;;;;;;;3.30;2.30;;;;;;;23.75;17.64;99361.63;12252749;19;20026;-77
2022/04/20 14:12:31;;;;;;;4.93;2.78;;;;;;;22.63;18.69;99364.25;12254532;19;20007;-79
2022/04/20 14:16:33;;;;;;;3.72;2.33;;;;;;;22.14;18.96;99363.06;12224237;19;20053;-80
2022/04/20 14:20:37;;;;;;;6.72;2.35;;;;;;;22.17;19.03;99368.84;12257196;19;20015;-80
2022/04/20 14:24:41;;;;;;;3.17;2.10;;;;;;;22.07;19.47;99360.75;12257594;19;20014;-81
2022/04/20 14:33:04;;;;;;;2.97;1.83;;;;;;;21.32;20.60;99355.53;12246411;19;20017;-79
2022/04/20 14:37:06;;;;;;;2.58;1.83;;;;;;;20.85;20.86;99349.84;12224891;19;20013;-82
2022/04/20 14:41:08;;;;;;;;;;;;;;;20.28;22.15;99361.09;12202491;19;20029;-82
2022/04/20 14:45:09;;;;;;;4.97;2.22;;;;;;;19.90;22.38;99361.66;12217016;19;19911;-80
2022/04/20 14:49:12;;;;;;;2.78;2.00;;;;;;;19.77;22.60;99354.16;12223045;19;20593;-83
2022/04/20 14:53:14;;;;;;;3.63;2.05;;;;;;;20.23;22.73;99350.06;12196590;19;20010;-84
2022/04/20 14:57:21;;;;;;;4.68;2.55;;;;;;;20.40;22.67;99350.09;12211232;19;20002;-81
2022/04/20 15:01:27;;;;;;;3.40;2.00;;;;;;;20.99;22.25;99343.25;12213938;19;20011;-82
2022/04/20 15:05:34;;;;;;;11.88;2.25;;;;;;;20.67;22.62;99340.63;12226213;19;20373;-82
2022/04/20 15:09:36;;;;;;;6.28;2.08;;;;;;;19.97;23.56;99334.03;12210286;19;20559;-80
2022/04/20 15:13:39;;;;;;;4.80;2.13;;;;;;;19.77;23.47;99329.00;12192450;19;20007;-80
2022/04/20 15:17:41;;;;;;;2.78;1.95;;;;;;;19.07;24.70;99337.00;12206353;19;20123;-83
2022/04/20 15:21:43;;;;;;;5.93;1.90;;;;;;;19.15;24.82;99328.97;12223997;19;20475;-83
2022/04/20 15:25:45;;;;;;;4.68;1.92;;;;;;;19.06;25.53;99335.31;12188343;19;20002;-81
2022/04/20 15:29:47;;;;;;;6.55;1.80;;;;;;;18.57;25.96;99325.88;12206809;19;20010;-82
2022/04/20 15:33:49;;;;;;;2.88;1.75;;;;;;;18.52;26.28;99328.78;12217137;19;20011;-83
2022/04/20 15:37:51;;;;;;;2.85;1.75;;;;;;;18.61;25.88;99337.25;12185830;19;20034;-82
2022/04/20 15:41:55;;;;;;;2.63;1.80;;;;;;;18.40;26.39;99334.09;12214572;19;20013;-81
2022/04/20 15:45:57;;;;;;;3.72;2.00;;;;;;;18.27;26.42;99330.19;12207858;19;20377;-83
2022/04/20 15:49:59;;;;;;;5.05;1.80;;;;;;;18.24;26.91;99333.63;12194562;19;20010;-82
2022/04/20 15:54:02;;;;;;;6.43;2.10;;;;;;;18.20;27.05;99333.44;12212955;19;20007;-82
2022/04/20 16:02:25;;;;;;;2.53;1.70;;;;;;;18.56;26.92;99323.41;12187593;19;19926;-82
2022/04/20 16:06:27;;;;;;;6.22;1.70;;;;;;;18.82;26.37;99310.50;12209146;19;20480;-84
2022/04/20 16:10:29;;;;;;;2.50;1.57;;;;;;;18.67;26.99;99308.91;12181751;19;20462;-81
2022/04/20 16:14:34;;;;;;;2.97;1.70;;;;;;;18.39;27.45;99310.97;12216371;19;20474;-81
2022/04/20 16:18:35;;;;;;;5.17;1.90;;;;;;;18.21;27.81;99309.97;12215372;19;20018;-82
2022/04/20 16:22:37;;;;;;;2.25;1.48;;;;;;;18.31;27.59;99306.13;12194660;19;20377;-83
2022/04/20 16:26:40;;;;;;;4.57;1.40;;;;;;;18.59;27.29;99309.66;12218464;19;20011;-83
2022/04/20 16:30:41;;;;;;;5.97;1.50;;;;;;;18.85;27.40;99304.31;12226238;19;20017;-83
2022/04/20 16:34:43;;;;;;;3.57;1.80;;;;;;;18.86;27.28;99302.34;12209492;19;20027;-82
2022/04/20 16:38:45;;;;;;;4.72;1.58;;;;;;;18.67;27.55;99302.50;12225173;19;20006;-82
2022/04/20 16:42:47;;;;;;;4.03;1.60;;;;;;;18.53;27.75;99296.13;12224421;19;20014;-83
2022/04/20 16:46:51;;;;;;;3.90;1.60;;;;;;;18.41;27.97;99279.94;12199716;19;20017;-84
2022/04/20 16:50:53;;;;;;;4.25;1.80;;;;;;;18.67;27.48;99278.19;12219852;19;20006;-84
2022/04/20 16:54:55;;;;;;;2.85;1.80;;;;;;;18.86;27.37;99282.81;12217428;19;20014;-85
2022/04/20 16:58:56;;;;;;;2.55;1.70;;;;;;;18.53;28.05;99277.44;12204427;19;20788;-84
2022/04/20 17:02:58;;;;;;;2.72;1.55;;;;;;;18.29;28.32;99279.66;12217513;19;20482;-84
2022/04/20 17:07:04;;;;;;;6.60;2.05;;;;;;;18.76;28.18;99278.28;12220168;19;20494;-85
2022/04/20 17:11:05;;;;;;;5.40;1.80;;;;;;;19.26;27.64;99285.69;12201267;19;20010;-85
2022/04/20 17:15:09;;;;;;;3.67;1.55;;;;;;;19.32;27.37;99284.41;12216067;19;20006;-83
2022/04/20 17:19:11;;;;;;;5.75;2.97;;;;;;;19.45;27.82;99289.06;12230079;19;20348;-86
2022/04/20 17:27:35;;;;;;;2.47;1.27;;;;;;;18.98;27.93;99285.84;12207030;19;20006;-85
2022/04/20 17:31:39;;;;;;;2.67;1.23;;;;;;;18.95;28.11;99285.63;12192807;19;20022;-84
2022/04/20 17:40:02;;;;;;;3.63;1.50;;;;;;;18.78;28.53;99295.56;12209859;19;20070;-80
2022/04/20 17:44:05;;;;;;;2.83;1.70;;;;;;;18.66;28.80;99296.09;12187363;19;20583;-84
2022/04/20 17:48:08;;;;;;;2.45;1.27;;;;;;;18.41;29.23;99299.47;12207974;19;20010;-83
2022/04/20 17:52:10;;;;;;;4.22;1.55;;;;;;;18.22;29.63;99297.66;12220321;19;20725;-84
2022/04/20 17:56:13;;;;;;;2.13;1.40;;;;;;;18.55;29.29;99300.25;12188744;19;20006;-85
2022/04/20 18:00:16;;;;;;;4.18;1.60;;;;;;;18.50;29.94;99305.13;12206611;19;20018;-84
2022/04/20 18:04:21;;;;;;;3.08;1.40;;;;;;;18.16;30.94;99298.91;12184247;19;20078;-84
2022/04/20 18:08:23;;;;;;;3.88;1.50;;;;;;;17.74;31.58;99303.69;12212675;19;20042;-84
2022/04/20 18:12:29;;;;;;;7.13;1.90;;;;;;;17.39;32.51;99313.56;12220457;19;20010;-85
2022/04/20 18:16:32;;;;;;;3.78;1.40;;;;;;;16.83;33.54;99317.31;12209522;19;20513;-85
2022/04/20 18:20:35;;;;;;;5.97;1.70;;;;;;;16.30;34.40;99325.88;12229699;19;20007;-85
2022/04/20 18:24:53;;;;;;;3.15;2.10;;;;;;;15.68;36.04;99335.00;12230423;19;20020;-82
2022/04/20 18:28:54;;;;;;;4.18;1.52;;;;;;;15.24;37.00;99338.75;12200717;19;20003;-84
2022/04/20 18:32:56;;;;;;;3.30;1.83;;;;;;;14.91;37.40;99332.13;12224175;19;20002;-84
2022/04/20 18:36:59;;;;;;;9.50;3.40;;;;;;;14.53;38.55;99348.47;12219129;19;20447;-85
2022/04/20 18:41:01;;;;;;;4.47;1.90;;;;;;;14.31;38.55;99348.06;12202908;19;20021;-86
2022/04/20 18:45:02;;;;;;;4.95;2.00;;;;;;;14.09;39.10;99357.56;12226063;19;20270;-84
2022/04/20 18:49:04;;;;;;;2.78;1.35;;;;;;;13.89;39.35;99357.63;12231868;19;20010;-86
2022/04/20 18:57:46;;;;;;;3.40;1.52;;;;;;;13.47;40.49;99361.63;12242056;19;20010;-85
2022/04/20 19:01:48;;;;;;;5.25;1.70;;;;;;;13.30;41.12;99367.50;12207867;19;20040;-85
2022/04/20 19:05:50;;;;;;;2.58;1.77;;;;;;;13.10;42.04;99373.84;12237606;19;20017;-85
2022/04/20 19:09:56;;;;;;;4.20;1.80;;;;;;;12.98;41.73;99376.06;12253339;19;20058;-85
2022/04/20 19:13:57;;;;;;;5.75;1.30;;;;;;;12.86;42.53;99389.31;12211820;19;20268;-85
2022/04/20 19:18:00;;;;;;;2.85;1.40;;;;;;;12.72;42.85;99389.03;12229592;19;20046;-84
2022/04/20 19:22:03;;;;;;;5.22;1.40;;;;;;;12.57;43.19;99392.59;12228693;19;20016;-85
2022/04/20 19:26:09;;;;;;;3.03;1.60;;;;;;;12.41;43.99;99396.44;12198518;19;20010;-87
2022/04/20 19:30:58;;;;;;;4.03;1.90;;;;;;;12.26;44.53;99400.81;12210285;19;20405;-86
2022/04/20 19:35:00;;;;;;;2.42;1.70;;;;;;;12.15;44.14;99401.84;12200954;19;20010;-86
2022/04/20 19:39:10;;;;;;;5.85;1.70;;;;;;;12.00;46.05;99404.56;12226172;19;20015;-86
2022/04/20 19:43:13;;;;;;;7.18;1.73;;;;;;;11.91;46.22;99406.19;12233993;19;20003;-86
2022/04/20 19:47:15;;;;;;;2.78;1.70;;;;;;;11.89;46.10;99413.88;12202897;19;20021;-84
2022/04/20 19:51:17;;;;;;;2.90;1.93;;;;;;;11.80;46.12;99403.31;12237264;19;20011;-86
2022/04/20 19:55:19;;;;;;;3.03;1.63;;;;;;;11.65;47.48;99406.00;12211766;19;20271;-82
2022/04/20 19:59:41;;;;;;;2.80;1.58;;;;;;;11.52;47.62;99415.59;12238690;19;20081;-86
2022/04/20 20:03:44;;;;;;;2.40;1.48;;;;;;;11.40;47.52;99417.72;12240425;19;20006;-85
2022/04/20 20:07:46;;;;;;;2.67;1.50;;;;;;;11.32;47.21;99412.66;12216610;19;20014;-85
2022/04/20 20:11:48;;;;;;;3.03;1.52;;;;;;;11.21;48.07;99409.00;12228516;19;20011;-86